Terminal Aerodrome Forecast
Issued by NWS Charleston, WV

Current Version | Previous Version | Graphics & Text | Print | Product List | Glossary On
Versions: 1 2 3 4 5 6 7 8 9 10 11 12 13 14 15 16 17 18 19 20 21 22
000
FTUS41 KRLX 111438 AAA
TAFPKB
TAF AMD
KPKB 111438Z 1115/1212 VRB04KT P6SM SKC
     FM120100 15004KT P6SM BKN080
     FM120700 22007KT P6SM OVC040
     FM120800 23007KT 4SM -SHSN OVC025=

USA.gov is the U.S. government's official web portal to all federal, state and local government web resources and services.